Euro Snow — VQGH9 — position and weather

sailwx.info

Track history (hours):
 
Tides and Currents Weather Stations Pressure Air Temp Water Temp Dewpoint Dewpoint Depression Visibility Wind Speed Wind Dir Waves Ship Positions

Euro Snow

Last reported at 2014-Aug-27 16:32 UTC. Time now 2014-Aug-27 17:12 UTC.
Position N 57°41' E 011°51'.

Length 133 m; draft 6.3 m.

Type: Cargo ship. MMSI: 235613000.

Date/timePositionNaut miles runAvg speedWind from/ knotsBaromVisibWave heightAir tempDewpointWater temp
2014-Aug-27 16:32N 57°41' E 011°51'0 0.0
2014-Aug-27 15:32N 57°41' E 011°51'0 0.0
2014-Aug-27 14:32N 57°41' E 011°51'0 0.0
2014-Aug-27 13:32N 57°41' E 011°51'0 0.0
2014-Aug-27 12:32N 57°41' E 011°51'0 0.0
2014-Aug-27 11:32N 57°41' E 011°51'0 0.0
2014-Aug-27 10:32N 57°41' E 011°51'0 0.0
2014-Aug-27 09:33N 57°41' E 011°51'0 0.0
2014-Aug-27 08:33N 57°41' E 011°51'0 0.0
2014-Aug-27 07:33N 57°41' E 011°51'0 0.0
2014-Aug-27 06:33N 57°41' E 011°51'0 0.0
2014-Aug-27 05:33N 57°41' E 011°51'2 1.9
2014-Aug-27 04:33N 57°40' E 011°48'1413.8
2014-Aug-27 03:33N 57°38' E 011°22'1414.5
2014-Aug-27 02:33N 57°44' E 010°58'1413.9
2014-Aug-27 01:33N 57°47' E 010°32'1313.5
2014-Aug-27 00:33N 57°42' E 010°09'1413.8
2014-Aug-26 23:34N 57°36' E 009°45'1414.0
2014-Aug-26 22:33N 57°30' E 009°22'1414.1
2014-Aug-26 21:33N 57°24' E 008°58'1514.0
2014-Aug-26 20:30N 57°17' E 008°34'31814.4
2014-Aug-25 22:31N 54°59' E 000°00'1313.8
2014-Aug-25 21:33N 54°53' W 000°20'1413.8
2014-Aug-25 20:33N 54°47' W 000°42'1513.7
2014-Aug-25 19:27N 54°40' W 001°05'5 1.0
2014-Aug-25 14:31N 54°36' W 001°09'0 0.0
2014-Aug-25 13:33N 54°36' W 001°09'0 0.0
2014-Aug-25 12:14N 54°36' W 001°09'0 0.0
2014-Aug-25 11:29N 54°36' W 001°09'0 0.0
2014-Aug-25 10:32N 54°36' W 001°09'2 1.6
2014-Aug-25 09:33N 54°38' W 001°09'1313.4
2014-Aug-25 08:33N 54°36' W 000°46'1514.9
2014-Aug-25 07:33N 54°28' W 000°24'1515.1
2014-Aug-25 06:33N 54°17' W 000°08'1515.0
2014-Aug-25 05:33N 54°06' E 000°10'1514.7
2014-Aug-25 04:33N 53°55' E 000°26'1514.6
2014-Aug-25 03:33N 53°44' E 000°43'3215.9
2014-Aug-25 01:33N 53°17' E 001°13'1818.4
2014-Aug-25 00:33N 53°02' E 001°29'1818.4
2014-Aug-24 23:34N 52°48' E 001°49'1615.6
2014-Aug-24 22:34N 52°33' E 001°53'1615.7
2014-Aug-24 21:34N 52°18' E 001°46'1514.6
2014-Aug-24 20:33N 52°04' E 001°39'1312.8
2014-Aug-24 19:33N 51°56' E 001°23'3 3.2
2014-Aug-24 18:32N 51°57' E 001°18'0 0.0
2014-Aug-24 17:33N 51°57' E 001°18'0 0.0
2014-Aug-24 16:31N 51°57' E 001°18'0 0.0
2014-Aug-24 15:31N 51°57' E 001°18'0 0.0
2014-Aug-24 14:28N 51°57' E 001°18'0 0.0
2014-Aug-24 13:31N 51°57' E 001°18'0 0.0
2014-Aug-24 12:34N 51°57' E 001°18'0 0.0
2014-Aug-24 11:33N 51°57' E 001°18'0 0.0
2014-Aug-24 10:33N 51°57' E 001°18'1 0.8
2014-Aug-24 09:33N 51°57' E 001°19'8 8.0
2014-Aug-24 08:33N 51°58' E 001°32'0 0.0
2014-Aug-24 07:33N 51°58' E 001°32'5 5.1
2014-Aug-24 06:34N 51°53' E 001°34'1010.4
2014-Aug-24 05:34N 51°47' E 001°48'1212.2
2014-Aug-24 04:34N 51°35' E 001°48'1312.7
2014-Aug-24 03:34N 51°22' E 001°44'1212.2
2014-Aug-24 02:33N 51°10' E 001°42'1312.7
2014-Aug-24 01:34N 50°59' E 001°31'1813.6
2014-Aug-24 00:14N 50°43' E 001°19'1313.3
2014-Aug-23 23:17N 50°35' E 001°04'1013.0
2014-Aug-23 22:30N 50°30' E 000°50'1313.2
2014-Aug-23 21:33N 50°26' E 000°31'  
2014-Aug-20 02:29N 38°39' W 009°40'1415.3
2014-Aug-20 01:34N 38°37' W 009°22'1413.7
2014-Aug-20 00:33N 38°44' W 009°06'0 0.0
2014-Aug-19 23:33N 38°44' W 009°06'0 0.0
2014-Aug-19 22:31N 38°44' W 009°06'0 0.0
2014-Aug-19 21:31N 38°44' W 009°06'0 0.0
2014-Aug-19 20:32N 38°44' W 009°06'0 0.0
2014-Aug-19 19:29N 38°44' W 009°06'0 0.0
2014-Aug-19 18:32N 38°44' W 009°06'0 0.0
2014-Aug-19 17:32N 38°44' W 009°06'0 0.0
2014-Aug-19 16:32N 38°44' W 009°06'0 0.0
2014-Aug-19 15:32N 38°44' W 009°06'4 3.7
2014-Aug-19 14:33N 38°41' W 009°10'1313.4
2014-Aug-19 13:33N 38°37' W 009°26'1413.6
2014-Aug-19 12:33N 38°41' W 009°43'  
Track history (hours):
 
Tides and Currents Weather Stations Pressure Air Temp Water Temp Dewpoint Dewpoint Depression Visibility Wind Speed Wind Dir Waves Ship Positions

Euro Snow

Last reported at 2014-Aug-27 16:32 UTC. Time now 2014-Aug-27 17:12 UTC.
Position N 57°41' E 011°51'.

Length 133 m; draft 6.3 m.

Type: Cargo ship. MMSI: 235613000.

Date/timePositionNaut miles runAvg speedWind from/ knotsBaromVisibWave heightAir tempDewpointWater temp
2014-Aug-27 16:32N 57°41' E 011°51'0 0.0
2014-Aug-27 15:32N 57°41' E 011°51'0 0.0
2014-Aug-27 14:32N 57°41' E 011°51'0 0.0
2014-Aug-27 13:32N 57°41' E 011°51'0 0.0
2014-Aug-27 12:32N 57°41' E 011°51'0 0.0
2014-Aug-27 11:32N 57°41' E 011°51'0 0.0
2014-Aug-27 10:32N 57°41' E 011°51'0 0.0
2014-Aug-27 09:33N 57°41' E 011°51'0 0.0
2014-Aug-27 08:33N 57°41' E 011°51'0 0.0
2014-Aug-27 07:33N 57°41' E 011°51'0 0.0
2014-Aug-27 06:33N 57°41' E 011°51'0 0.0
2014-Aug-27 05:33N 57°41' E 011°51'2 1.9
2014-Aug-27 04:33N 57°40' E 011°48'1413.8
2014-Aug-27 03:33N 57°38' E 011°22'1414.5
2014-Aug-27 02:33N 57°44' E 010°58'1413.9
2014-Aug-27 01:33N 57°47' E 010°32'1313.5
2014-Aug-27 00:33N 57°42' E 010°09'1413.8
2014-Aug-26 23:34N 57°36' E 009°45'1414.0
2014-Aug-26 22:33N 57°30' E 009°22'1414.1
2014-Aug-26 21:33N 57°24' E 008°58'1514.0
2014-Aug-26 20:30N 57°17' E 008°34'31814.4
2014-Aug-25 22:31N 54°59' E 000°00'1313.8
2014-Aug-25 21:33N 54°53' W 000°20'1413.8
2014-Aug-25 20:33N 54°47' W 000°42'1513.7
2014-Aug-25 19:27N 54°40' W 001°05'5 1.0
2014-Aug-25 14:31N 54°36' W 001°09'0 0.0
2014-Aug-25 13:33N 54°36' W 001°09'0 0.0
2014-Aug-25 12:14N 54°36' W 001°09'0 0.0
2014-Aug-25 11:29N 54°36' W 001°09'0 0.0
2014-Aug-25 10:32N 54°36' W 001°09'2 1.6
2014-Aug-25 09:33N 54°38' W 001°09'1313.4
2014-Aug-25 08:33N 54°36' W 000°46'1514.9
2014-Aug-25 07:33N 54°28' W 000°24'1515.1
2014-Aug-25 06:33N 54°17' W 000°08'1515.0
2014-Aug-25 05:33N 54°06' E 000°10'1514.7
2014-Aug-25 04:33N 53°55' E 000°26'1514.6
2014-Aug-25 03:33N 53°44' E 000°43'3215.9
2014-Aug-25 01:33N 53°17' E 001°13'1818.4
2014-Aug-25 00:33N 53°02' E 001°29'1818.4
2014-Aug-24 23:34N 52°48' E 001°49'1615.6
2014-Aug-24 22:34N 52°33' E 001°53'1615.7
2014-Aug-24 21:34N 52°18' E 001°46'1514.6
2014-Aug-24 20:33N 52°04' E 001°39'1312.8
2014-Aug-24 19:33N 51°56' E 001°23'3 3.2
2014-Aug-24 18:32N 51°57' E 001°18'0 0.0
2014-Aug-24 17:33N 51°57' E 001°18'0 0.0
2014-Aug-24 16:31N 51°57' E 001°18'0 0.0
2014-Aug-24 15:31N 51°57' E 001°18'0 0.0
2014-Aug-24 14:28N 51°57' E 001°18'0 0.0
2014-Aug-24 13:31N 51°57' E 001°18'0 0.0
2014-Aug-24 12:34N 51°57' E 001°18'0 0.0
2014-Aug-24 11:33N 51°57' E 001°18'0 0.0
2014-Aug-24 10:33N 51°57' E 001°18'1 0.8
2014-Aug-24 09:33N 51°57' E 001°19'8 8.0
2014-Aug-24 08:33N 51°58' E 001°32'0 0.0
2014-Aug-24 07:33N 51°58' E 001°32'5 5.1
2014-Aug-24 06:34N 51°53' E 001°34'1010.4
2014-Aug-24 05:34N 51°47' E 001°48'1212.2
2014-Aug-24 04:34N 51°35' E 001°48'1312.7
2014-Aug-24 03:34N 51°22' E 001°44'1212.2
2014-Aug-24 02:33N 51°10' E 001°42'1312.7
2014-Aug-24 01:34N 50°59' E 001°31'1813.6
2014-Aug-24 00:14N 50°43' E 001°19'1313.3
2014-Aug-23 23:17N 50°35' E 001°04'1013.0
2014-Aug-23 22:30N 50°30' E 000°50'1313.2
2014-Aug-23 21:33N 50°26' E 000°31'  
2014-Aug-20 02:29N 38°39' W 009°40'1415.3
2014-Aug-20 01:34N 38°37' W 009°22'1413.7
2014-Aug-20 00:33N 38°44' W 009°06'0 0.0
2014-Aug-19 23:33N 38°44' W 009°06'0 0.0
2014-Aug-19 22:31N 38°44' W 009°06'0 0.0
2014-Aug-19 21:31N 38°44' W 009°06'0 0.0
2014-Aug-19 20:32N 38°44' W 009°06'0 0.0
2014-Aug-19 19:29N 38°44' W 009°06'0 0.0
2014-Aug-19 18:32N 38°44' W 009°06'0 0.0
2014-Aug-19 17:32N 38°44' W 009°06'0 0.0
2014-Aug-19 16:32N 38°44' W 009°06'0 0.0
2014-Aug-19 15:32N 38°44' W 009°06'4 3.7
2014-Aug-19 14:33N 38°41' W 009°10'1313.4
2014-Aug-19 13:33N 38°37' W 009°26'1413.6
2014-Aug-19 12:33N 38°41' W 009°43'  

Dump ship's entire track history